createdAt,value
2019-04-04T00:01:51.701Z,93532.59
2019-04-04T00:04:21.831Z,93507.41
2019-04-04T00:06:48.832Z,93490.33
2019-04-04T00:09:17.752Z,93500.44
2019-04-04T00:11:45.231Z,93488.95
2019-04-04T00:14:13.414Z,93478.00
2019-04-04T00:16:40.932Z,93491.75
2019-04-04T00:19:08.330Z,93494.67
2019-04-04T00:21:35.711Z,93497.97
2019-04-04T00:24:03.276Z,93504.81
2019-04-04T00:26:30.660Z,93507.78
2019-04-04T00:29:01.184Z,93510.39
2019-04-04T00:31:27.609Z,93503.20
2019-04-04T00:33:55.874Z,93497.13
2019-04-04T00:36:23.852Z,93491.55
2019-04-04T00:38:51.442Z,93483.84
2019-04-04T00:41:18.831Z,93483.86
2019-04-04T00:43:46.252Z,93475.03
2019-04-04T00:46:13.641Z,93464.55
2019-04-04T00:48:41.015Z,93461.23
2019-04-04T00:51:08.619Z,93461.72
2019-04-04T00:53:36.154Z,93464.05
2019-04-04T00:56:03.711Z,93463.55
2019-04-04T00:58:31.094Z,93459.39
2019-04-04T01:00:59.131Z,93463.22
2019-04-04T01:03:29.752Z,93456.30
2019-04-04T01:05:55.792Z,93453.39
2019-04-04T01:08:23.170Z,93465.58
2019-04-04T01:10:50.559Z,93466.33
2019-04-04T01:13:21.233Z,93466.42
2019-04-04T01:15:49.032Z,93459.28
2019-04-04T01:18:16.435Z,93460.02
2019-04-04T01:20:43.787Z,93452.61
2019-04-04T01:23:11.177Z,93458.62
2019-04-04T01:25:38.552Z,93459.64
2019-04-04T01:28:06.141Z,93453.45
2019-04-04T01:30:35.211Z,93450.64
2019-04-04T01:33:03.874Z,93458.56
2019-04-04T01:35:31.395Z,93455.62
2019-04-04T01:37:58.880Z,93461.95
2019-04-04T01:40:26.662Z,93449.30
2019-04-04T01:42:54.046Z,93458.72
2019-04-04T01:45:21.402Z,93470.07
2019-04-04T01:47:48.753Z,93466.47
2019-04-04T01:50:16.038Z,93467.26
2019-04-04T01:52:43.314Z,93458.13
2019-04-04T01:55:10.576Z,93457.10
2019-04-04T01:57:38.934Z,93460.96
2019-04-04T02:00:09.241Z,93466.19
2019-04-04T02:02:36.469Z,93470.59
2019-04-04T02:05:05.693Z,93464.55
2019-04-04T02:07:32.952Z,93455.94
2019-04-04T02:10:00.203Z,93456.06
2019-04-04T02:12:27.529Z,93450.66
2019-04-04T02:14:54.826Z,93444.13
2019-04-04T02:17:22.303Z,93440.67
2019-04-04T02:19:50.134Z,93440.33
2019-04-04T02:22:17.573Z,93430.17
2019-04-04T02:24:44.812Z,93432.08
2019-04-04T02:27:12.072Z,93431.70
2019-04-04T02:29:39.945Z,93425.55
2019-04-04T02:32:11.913Z,93430.84
2019-04-04T02:34:39.216Z,93422.05
2019-04-04T02:37:06.446Z,93418.62
2019-04-04T02:39:35.283Z,93414.73
2019-04-04T02:42:02.954Z,93409.22
2019-04-04T02:44:32.267Z,93402.70
2019-04-04T02:46:59.410Z,93394.31
2019-04-04T02:49:29.221Z,93393.81
2019-04-04T02:51:55.798Z,93389.52
2019-04-04T02:54:24.666Z,93392.30
2019-04-04T02:56:52.188Z,93388.02
2019-04-04T02:59:21.490Z,93397.70
2019-04-04T03:01:48.584Z,93397.15
2019-04-04T03:04:15.938Z,93393.53
2019-04-04T03:06:43.287Z,93382.41
2019-04-04T03:09:10.704Z,93376.59
2019-04-04T03:11:42.380Z,93369.77
2019-04-04T03:14:09.627Z,93371.94
2019-04-04T03:16:36.867Z,93370.58
2019-04-04T03:19:04.250Z,93356.90
2019-04-04T03:21:31.470Z,93371.93
2019-04-04T03:23:58.718Z,93371.20
2019-04-04T03:26:26.013Z,93369.41
2019-04-04T03:28:53.258Z,93369.69
2019-04-04T03:31:20.676Z,93375.20
2019-04-04T03:33:47.913Z,93361.92
2019-04-04T03:36:15.170Z,93359.78
2019-04-04T03:38:45.985Z,93353.76
2019-04-04T03:41:11.573Z,93348.72
2019-04-04T03:43:38.956Z,93341.66
2019-04-04T03:46:06.226Z,93336.19
2019-04-04T03:48:33.491Z,93348.98
2019-04-04T03:51:04.069Z,93340.53
2019-04-04T03:53:29.927Z,93331.88
2019-04-04T03:56:00.318Z,93343.04
2019-04-04T03:58:28.030Z,93333.70
2019-04-04T04:00:55.415Z,93329.54
2019-04-04T04:03:23.615Z,93320.79
2019-04-04T04:05:50.930Z,93316.74
2019-04-04T04:08:20.967Z,93313.41
2019-04-04T04:10:47.419Z,93311.45
2019-04-04T04:13:17.221Z,93305.77
2019-04-04T04:15:44.075Z,93318.20
2019-04-04T04:18:11.313Z,93314.94
2019-04-04T04:20:38.561Z,93312.61
2019-04-04T04:23:05.857Z,93297.71
2019-04-04T04:25:36.596Z,93304.36
2019-04-04T04:28:03.141Z,93296.88
2019-04-04T04:30:30.734Z,93296.45
2019-04-04T04:32:58.800Z,93303.34
2019-04-04T04:35:26.012Z,93301.11
2019-04-04T04:37:53.897Z,93289.02
2019-04-04T04:40:21.550Z,93280.20
2019-04-04T04:42:48.911Z,93284.39
2019-04-04T04:45:16.271Z,93281.03
2019-04-04T04:47:43.574Z,93275.50
2019-04-04T04:50:10.928Z,93274.39
2019-04-04T04:52:38.247Z,93277.55
2019-04-04T04:55:05.561Z,93263.55
2019-04-04T04:57:34.427Z,93266.77
2019-04-04T05:00:02.029Z,93271.20
2019-04-04T05:02:29.246Z,93267.23
2019-04-04T05:04:57.247Z,93254.14
2019-04-04T05:07:25.682Z,93237.39
2019-04-04T05:09:52.907Z,93227.38
2019-04-04T05:12:21.679Z,93229.38
2019-04-04T05:14:49.269Z,93235.37
2019-04-04T05:17:16.535Z,93248.92
2019-04-04T05:19:45.146Z,93254.19
2019-04-04T05:22:12.629Z,93240.39
2019-04-04T05:24:39.969Z,93231.88
2019-04-04T05:27:07.334Z,93226.38
2019-04-04T05:29:34.570Z,93235.00
2019-04-04T05:32:01.842Z,93215.61
2019-04-04T05:34:30.398Z,93212.47
2019-04-04T05:36:58.250Z,93209.44
2019-04-04T05:39:25.575Z,93210.41
2019-04-04T05:41:52.874Z,93192.30
2019-04-04T05:44:20.149Z,93190.51
2019-04-04T05:46:51.015Z,93194.16
2019-04-04T05:49:16.666Z,93202.17
2019-04-04T05:51:43.955Z,93193.77
2019-04-04T05:54:11.232Z,93193.08
2019-04-04T05:56:38.469Z,93165.13
2019-04-04T05:59:05.688Z,93156.23
2019-04-04T06:01:35.152Z,93156.42
2019-04-04T06:04:03.935Z,93150.52
2019-04-04T06:06:33.372Z,93142.51
2019-04-04T06:09:00.518Z,93150.55
2019-04-04T06:11:27.749Z,93152.34
2019-04-04T06:13:54.992Z,93147.86
2019-04-04T06:16:22.377Z,93160.32
2019-04-04T06:18:49.637Z,93168.09
2019-04-04T06:21:18.501Z,93145.22
2019-04-04T06:23:46.131Z,93143.17
2019-04-04T06:26:13.414Z,93162.45
2019-04-04T06:28:40.726Z,93157.78
2019-04-04T06:31:08.036Z,93138.03
2019-04-04T06:33:35.968Z,93150.40
2019-04-04T06:36:03.285Z,93145.55
2019-04-04T06:38:30.534Z,93139.64
2019-04-04T06:40:58.878Z,93138.48
2019-04-04T06:43:28.190Z,93136.07
2019-04-04T06:45:55.527Z,93143.78
2019-04-04T06:48:22.866Z,93139.09
2019-04-04T06:50:50.079Z,93121.95
2019-04-04T06:53:17.329Z,93121.98
2019-04-04T06:55:44.598Z,93119.72
2019-04-04T06:58:11.835Z,93117.42
2019-04-04T07:00:41.851Z,93121.11
2019-04-04T07:03:08.249Z,93121.99
2019-04-04T07:05:37.812Z,93111.72
2019-04-04T07:08:04.694Z,93102.75
2019-04-04T07:10:32.309Z,93095.99
2019-04-04T07:13:09.687Z,93091.78
2019-04-04T07:15:29.250Z,93089.76
2019-04-04T07:17:56.670Z,93100.65
2019-04-04T07:20:24.182Z,93081.62
2019-04-04T07:22:51.704Z,93075.81
2019-04-04T07:25:18.970Z,93069.46
2019-04-04T07:27:47.407Z,93067.20
2019-04-04T07:30:15.666Z,93064.58
2019-04-04T07:32:42.923Z,93063.91
2019-04-04T07:35:10.319Z,93057.06
2019-04-04T07:37:37.567Z,93054.47
2019-04-04T07:40:04.993Z,93054.68
2019-04-04T07:42:33.249Z,93048.34
2019-04-04T07:45:00.469Z,93051.45
2019-04-04T07:47:27.754Z,93056.55
2019-04-04T07:49:55.458Z,93056.87
2019-04-04T07:52:22.749Z,93034.11
2019-04-04T07:54:50.249Z,93030.23
2019-04-04T07:57:19.748Z,93038.70
2019-04-04T07:59:46.660Z,93046.03
2019-04-04T08:02:13.910Z,93040.95
2019-04-04T08:04:41.315Z,93042.49
2019-04-04T08:07:08.579Z,93020.27
2019-04-04T08:09:35.842Z,93024.88
2019-04-04T08:12:03.189Z,93034.73
2019-04-04T08:14:30.436Z,93027.69
2019-04-04T08:16:57.726Z,93024.03
2019-04-04T08:19:24.989Z,93023.53
2019-04-04T08:21:52.272Z,93021.67
2019-04-04T08:24:19.572Z,93024.25
2019-04-04T08:26:46.836Z,93008.51
2019-04-04T08:29:14.076Z,93012.91
2019-04-04T08:31:41.397Z,93007.11
2019-04-04T08:34:08.736Z,92999.96
2019-04-04T08:36:36.098Z,92997.64
2019-04-04T08:39:06.208Z,92988.50
2019-04-04T08:41:33.468Z,92992.62
2019-04-04T08:44:00.756Z,92971.97
2019-04-04T08:46:28.032Z,92964.89
2019-04-04T08:48:55.309Z,92964.89
2019-04-04T08:51:22.540Z,92977.09
2019-04-04T08:53:50.910Z,92970.17
2019-04-04T08:56:18.190Z,92972.36
2019-04-04T08:58:45.432Z,92980.95
2019-04-04T09:01:12.766Z,92972.38
2019-04-04T09:03:40.007Z,92980.27
2019-04-04T09:06:07.306Z,92983.17
2019-04-04T09:08:34.544Z,92947.42
2019-04-04T09:11:01.917Z,92952.53
2019-04-04T09:13:29.240Z,92948.02
2019-04-04T09:15:56.467Z,92947.41
2019-04-04T09:18:23.716Z,92950.18
2019-04-04T09:20:51.075Z,92955.96
2019-04-04T09:23:18.283Z,92941.66
2019-04-04T09:25:45.515Z,92950.11
2019-04-04T09:28:12.774Z,92953.67
2019-04-04T09:30:40.450Z,92950.33
2019-04-04T09:33:07.719Z,92947.78
2019-04-04T09:35:34.924Z,92952.81
2019-04-04T09:38:02.199Z,92946.66
2019-04-04T09:40:29.473Z,92948.88
2019-04-04T09:42:59.600Z,92950.98
2019-04-04T09:45:27.201Z,92951.34
2019-04-04T09:47:54.434Z,92959.91
2019-04-04T09:50:21.630Z,92943.97
2019-04-04T09:52:48.922Z,92938.64
2019-04-04T09:55:16.163Z,92943.55
2019-04-04T09:57:43.427Z,92954.54
2019-04-04T10:00:12.246Z,92946.07
2019-04-04T10:02:39.649Z,92944.63
2019-04-04T10:05:07.495Z,92947.00
2019-04-04T10:07:34.739Z,92945.42
2019-04-04T10:10:01.954Z,92956.64
2019-04-04T10:12:29.713Z,92945.83
2019-04-04T10:14:57.182Z,92940.16
2019-04-04T10:17:24.448Z,92943.63
2019-04-04T10:19:51.684Z,92946.94
2019-04-04T10:22:18.899Z,92953.50
2019-04-04T10:24:46.162Z,92949.64
2019-04-04T10:27:13.440Z,92947.17
2019-04-04T10:29:40.710Z,92936.89
2019-04-04T10:32:07.949Z,92936.41
2019-04-04T10:34:35.528Z,92935.10
2019-04-04T10:37:02.772Z,92925.23
2019-04-04T10:39:32.716Z,92934.86
2019-04-04T10:41:59.188Z,92936.11
2019-04-04T10:44:26.418Z,92943.34
2019-04-04T10:46:53.748Z,92933.59
2019-04-04T10:49:20.959Z,92940.59
2019-04-04T10:51:48.231Z,92944.01
2019-04-04T10:54:16.477Z,92934.91
2019-04-04T10:56:43.788Z,92933.01
2019-04-04T10:59:11.039Z,92930.02
2019-04-04T11:01:38.311Z,92929.13
2019-04-04T11:04:05.612Z,92929.84
2019-04-04T11:06:32.894Z,92922.88
2019-04-04T11:09:00.180Z,92918.75
2019-04-04T11:11:27.491Z,92918.51
2019-04-04T11:13:54.850Z,92922.15
2019-04-04T11:16:30.096Z,92915.61
2019-04-04T11:18:51.614Z,92921.91
2019-04-04T11:21:18.868Z,92911.59
2019-04-04T11:23:46.232Z,92906.55
2019-04-04T11:26:13.489Z,92913.66
2019-04-04T11:28:40.736Z,92905.52
2019-04-04T11:31:08.055Z,92904.76
2019-04-04T11:33:35.324Z,92912.63
2019-04-04T11:36:02.547Z,92920.54
2019-04-04T11:38:29.832Z,92919.72
2019-04-04T11:40:57.103Z,92910.73
2019-04-04T11:43:24.388Z,92921.67
2019-04-04T11:45:51.666Z,92914.81
2019-04-04T11:48:19.001Z,92926.31
2019-04-04T11:50:46.290Z,92925.52
2019-04-04T11:53:13.574Z,92929.48
2019-04-04T11:55:40.864Z,92919.97
2019-04-04T11:58:08.235Z,92928.27
2019-04-04T12:00:37.272Z,92931.72
2019-04-04T12:03:04.736Z,92936.03
2019-04-04T12:05:32.021Z,92940.27
2019-04-04T12:07:59.269Z,92946.66
2019-04-04T12:10:26.566Z,92934.44
2019-04-04T12:12:53.806Z,92943.17
2019-04-04T12:15:21.075Z,92935.92
2019-04-04T12:17:48.386Z,92937.81
2019-04-04T12:20:15.728Z,92920.26
2019-04-04T12:22:43.012Z,92919.94
2019-04-04T12:25:10.333Z,92911.41
2019-04-04T12:27:37.574Z,92905.84
2019-04-04T12:30:05.172Z,92919.73
2019-04-04T12:32:32.453Z,92912.25
2019-04-04T12:34:59.761Z,92901.96
2019-04-04T12:37:27.108Z,92892.97
2019-04-04T12:39:54.355Z,92897.36
2019-04-04T12:42:21.768Z,92905.91
2019-04-04T12:44:49.493Z,92905.69
2019-04-04T12:47:16.798Z,92901.05
2019-04-04T12:49:44.007Z,92889.44
2019-04-04T12:52:11.334Z,92899.56
2019-04-04T12:54:38.589Z,92902.91
2019-04-04T12:57:06.057Z,92888.19
2019-04-04T12:59:33.346Z,92891.45
2019-04-04T13:02:00.618Z,92908.69
2019-04-04T13:04:31.900Z,92895.42
2019-04-04T13:06:57.032Z,92904.27
2019-04-04T13:09:24.293Z,92908.30
2019-04-04T13:11:51.569Z,92933.00
2019-04-04T13:14:18.895Z,92934.25
2019-04-04T13:16:46.155Z,92929.17
2019-04-04T13:19:13.423Z,92920.75
2019-04-04T13:21:40.789Z,92921.82
2019-04-04T13:24:08.017Z,92924.16
2019-04-04T13:26:35.349Z,92927.74
2019-04-04T13:29:02.685Z,92915.38
2019-04-04T13:31:30.015Z,92912.28
2019-04-04T13:33:57.230Z,92912.78
2019-04-04T13:36:24.489Z,92916.53
2019-04-04T13:38:51.737Z,92906.80
2019-04-04T13:41:22.248Z,92912.56
2019-04-04T13:43:48.232Z,92916.62
2019-04-04T13:46:15.490Z,92912.81
2019-04-04T13:48:43.635Z,92934.56
2019-04-04T13:51:11.509Z,92920.27
2019-04-04T13:53:41.264Z,92929.86
2019-04-04T13:56:07.941Z,92928.94
2019-04-04T13:58:35.244Z,92922.48
2019-04-04T14:01:02.624Z,92919.81
2019-04-04T14:03:29.896Z,92927.13
2019-04-04T14:05:57.182Z,92925.39
2019-04-04T14:08:24.455Z,92935.36
2019-04-04T14:10:58.059Z,92937.42
2019-04-04T14:13:20.915Z,92937.77
2019-04-04T14:15:48.176Z,92944.00
2019-04-04T14:18:21.232Z,92948.55
2019-04-04T14:20:49.330Z,92947.97
2019-04-04T14:23:16.615Z,92943.31
2019-04-04T14:25:43.852Z,92941.20
2019-04-04T14:28:11.165Z,92942.60
2019-04-04T14:30:38.359Z,92941.08
2019-04-04T14:33:05.631Z,92936.17
2019-04-04T14:35:32.940Z,92952.69
2019-04-04T14:38:00.217Z,92954.66
2019-04-04T14:40:27.548Z,92948.39
2019-04-04T14:42:54.843Z,92944.84
2019-04-04T14:45:22.179Z,92936.89
2019-04-04T14:47:49.589Z,92944.86
2019-04-04T14:50:16.840Z,92946.35
2019-04-04T14:52:44.216Z,92961.88
2019-04-04T14:55:12.024Z,92962.31
2019-04-04T14:57:39.379Z,92967.89
2019-04-04T15:00:09.620Z,92979.72
2019-04-04T15:02:36.976Z,92977.87
2019-04-04T15:05:04.430Z,92975.59
2019-04-04T15:07:31.773Z,92969.55
2019-04-04T15:09:59.045Z,92976.25
2019-04-04T15:12:26.563Z,92982.01
2019-04-04T15:14:53.911Z,93001.42
2019-04-04T15:17:21.331Z,92997.19
2019-04-04T15:19:49.000Z,92998.70
2019-04-04T15:22:16.470Z,93008.10
2019-04-04T15:24:44.070Z,93014.47
2019-04-04T15:27:11.475Z,93025.25
2019-04-04T15:29:38.826Z,93043.23
2019-04-04T15:32:06.216Z,93047.39
2019-04-04T15:34:33.595Z,93053.97
2019-04-04T15:37:01.290Z,93078.34
2019-04-04T15:39:28.807Z,93075.91
2019-04-04T15:41:57.062Z,93085.04
2019-04-04T15:44:24.601Z,93098.72
2019-04-04T15:46:52.169Z,93106.34
2019-04-04T15:49:19.610Z,93105.14
2019-04-04T15:51:47.115Z,93104.05
2019-04-04T15:54:14.448Z,93120.61
2019-04-04T15:56:42.792Z,93131.83
2019-04-04T15:59:10.114Z,93139.09
2019-04-04T16:01:37.554Z,93155.20
2019-04-04T16:04:05.069Z,93158.72
2019-04-04T16:06:32.727Z,93161.48
2019-04-04T16:09:00.190Z,93169.75
2019-04-04T16:11:27.678Z,93176.50
2019-04-04T16:13:55.083Z,93186.42
2019-04-04T16:16:22.623Z,93205.67
2019-04-04T16:18:50.032Z,93212.50
2019-04-04T16:21:17.828Z,93231.88
2019-04-04T16:23:45.756Z,93223.45
2019-04-04T16:26:14.819Z,93223.70
2019-04-04T16:28:42.418Z,93240.24
2019-04-04T16:31:09.887Z,93261.06
2019-04-04T16:33:37.406Z,93264.73
2019-04-04T16:36:05.535Z,93273.80
2019-04-04T16:38:33.274Z,93284.16
2019-04-04T16:41:00.844Z,93259.74
2019-04-04T16:43:28.220Z,93277.02
2019-04-04T16:45:55.753Z,93293.91
2019-04-04T16:48:23.355Z,93298.67
2019-04-04T16:50:50.995Z,93312.50
2019-04-04T16:53:18.593Z,93311.33
2019-04-04T16:55:46.145Z,93307.64
2019-04-04T16:58:13.676Z,93342.55
2019-04-04T17:00:41.809Z,93351.74
2019-04-04T17:03:09.390Z,93359.95
2019-04-04T17:05:40.341Z,93378.95
2019-04-04T17:08:08.017Z,93391.11
2019-04-04T17:10:36.729Z,93393.20
2019-04-04T17:13:04.621Z,93399.77
2019-04-04T17:15:32.675Z,93390.10
2019-04-04T17:18:00.399Z,93411.17
2019-04-04T17:20:28.097Z,93404.62
2019-04-04T17:22:56.069Z,93422.95
2019-04-04T17:25:25.404Z,93433.25
2019-04-04T17:27:53.382Z,93425.86
2019-04-04T17:30:22.339Z,93434.17
2019-04-04T17:32:50.335Z,93430.69
2019-04-04T17:35:18.888Z,93429.96
2019-04-04T17:37:47.001Z,93452.19
2019-04-04T17:40:15.189Z,93480.09
2019-04-04T17:42:43.409Z,93461.77
2019-04-04T17:45:11.989Z,93480.31
2019-04-04T17:47:39.882Z,93478.10
2019-04-04T17:50:10.146Z,93461.11
2019-04-04T17:52:38.088Z,93515.57
2019-04-04T17:55:07.405Z,93515.48
2019-04-04T17:57:36.208Z,93517.00
2019-04-04T18:00:09.600Z,93535.79
2019-04-04T18:02:37.561Z,93549.72
2019-04-04T18:05:06.137Z,93551.14
2019-04-04T18:07:34.062Z,93544.28
2019-04-04T18:10:01.951Z,93556.00
2019-04-04T18:12:39.699Z,93566.77
2019-04-04T18:14:59.662Z,93585.88
2019-04-04T18:17:28.442Z,93589.34
2019-04-04T18:19:56.377Z,93592.74
2019-04-04T18:22:26.310Z,93601.96
2019-04-04T18:24:54.033Z,93622.91
2019-04-04T18:27:21.819Z,93609.98
2019-04-04T18:29:49.827Z,93614.09
2019-04-04T18:32:17.557Z,93629.77
2019-04-04T18:34:45.273Z,93656.69
2019-04-04T18:37:13.031Z,93662.23
2019-04-04T18:39:40.932Z,93642.40
2019-04-04T18:42:08.845Z,93670.42
2019-04-04T18:44:36.815Z,93655.66
2019-04-04T18:47:04.962Z,93668.37
2019-04-04T18:49:32.629Z,93660.70
2019-04-04T18:52:01.277Z,93690.48
2019-04-04T18:54:29.636Z,93693.27
2019-04-04T18:56:57.586Z,93694.84
2019-04-04T18:59:26.967Z,93705.53
2019-04-04T19:01:55.123Z,93707.61
2019-04-04T19:04:23.236Z,93714.17
2019-04-04T19:06:51.332Z,93698.77
2019-04-04T19:09:19.618Z,93715.53
2019-04-04T19:11:47.364Z,93718.33
2019-04-04T19:14:15.484Z,93704.05
2019-04-04T19:16:44.383Z,93728.53
2019-04-04T19:19:12.140Z,93729.41
2019-04-04T19:21:40.973Z,93742.84
2019-04-04T19:24:11.596Z,93744.16
2019-04-04T19:26:39.264Z,93740.10
2019-04-04T19:29:11.815Z,93749.27
2019-04-04T19:31:40.371Z,93765.34
2019-04-04T19:34:09.775Z,93756.52
2019-04-04T19:36:37.564Z,93751.75
2019-04-04T19:39:09.535Z,93762.23
2019-04-04T19:41:37.398Z,93759.34
2019-04-04T19:44:05.277Z,93763.33
2019-04-04T19:46:37.219Z,93779.03
2019-04-04T19:49:02.951Z,93774.41
2019-04-04T19:51:32.215Z,93779.95
2019-04-04T19:54:00.243Z,93783.80
2019-04-04T19:56:29.346Z,93785.09
2019-04-04T19:58:57.572Z,93796.25
2019-04-04T20:01:25.786Z,93791.33
2019-04-04T20:03:53.501Z,93803.80
2019-04-04T20:06:21.113Z,93809.63
2019-04-04T20:08:53.655Z,93814.17
2019-04-04T20:11:20.657Z,93804.98
2019-04-04T20:13:48.296Z,93829.13
2019-04-04T20:16:16.137Z,93814.36
2019-04-04T20:18:43.708Z,93822.44
2019-04-04T20:21:11.764Z,93819.97
2019-04-04T20:23:39.413Z,93830.20
2019-04-04T20:26:07.521Z,93841.44
2019-04-04T20:28:36.044Z,93843.79
2019-04-04T20:31:03.717Z,93837.67
2019-04-04T20:33:31.232Z,93832.05
2019-04-04T20:35:58.978Z,93838.58
2019-04-04T20:38:26.662Z,93838.28
2019-04-04T20:40:54.294Z,93854.85
2019-04-04T20:43:21.928Z,93840.09
2019-04-04T20:45:49.659Z,93847.88
2019-04-04T20:48:17.140Z,93851.95
2019-04-04T20:50:44.832Z,93856.30
2019-04-04T20:53:12.498Z,93871.04
2019-04-04T20:55:40.249Z,93857.72
2019-04-04T20:58:07.573Z,93870.75
2019-04-04T21:00:35.118Z,93879.27
2019-04-04T21:03:02.707Z,93882.04
2019-04-04T21:05:30.182Z,93885.95
2019-04-04T21:07:57.478Z,93886.30
2019-04-04T21:10:24.831Z,93898.70
2019-04-04T21:12:52.163Z,93908.80
2019-04-04T21:15:19.465Z,93913.05
2019-04-04T21:17:46.795Z,93919.95
2019-04-04T21:20:14.072Z,93911.52
2019-04-04T21:22:41.337Z,93920.89
2019-04-04T21:25:08.698Z,93926.75
2019-04-04T21:27:36.042Z,93936.88
2019-04-04T21:30:03.669Z,93948.04
2019-04-04T21:32:31.261Z,93942.28
2019-04-04T21:34:58.564Z,93953.28
2019-04-04T21:37:25.787Z,93947.42
2019-04-04T21:39:53.056Z,93947.61
2019-04-04T21:42:20.361Z,93958.18
2019-04-04T21:44:47.622Z,93957.02
2019-04-04T21:47:14.909Z,93972.77
2019-04-04T21:49:42.692Z,93968.87
2019-04-04T21:52:09.901Z,93971.77
2019-04-04T21:54:37.174Z,93968.12
2019-04-04T21:57:04.382Z,93967.27
2019-04-04T21:59:31.612Z,93963.87
2019-04-04T22:01:58.953Z,93970.70
2019-04-04T22:04:26.245Z,93960.82
2019-04-04T22:06:53.491Z,93966.77
2019-04-04T22:09:20.867Z,93968.29
2019-04-04T22:11:48.120Z,93979.27
2019-04-04T22:14:21.712Z,93974.80
2019-04-04T22:16:44.553Z,93988.63
2019-04-04T22:19:11.789Z,93982.70
2019-04-04T22:21:39.026Z,93992.43
2019-04-04T22:24:06.309Z,93992.88
2019-04-04T22:26:33.615Z,93979.73
2019-04-04T22:29:00.957Z,93987.78
2019-04-04T22:31:28.212Z,93978.77
2019-04-04T22:33:55.428Z,93981.52
2019-04-04T22:36:22.738Z,93975.75
2019-04-04T22:38:49.976Z,93966.19
2019-04-04T22:41:17.249Z,93962.28
2019-04-04T22:43:44.512Z,93965.11
2019-04-04T22:46:11.734Z,93959.38
2019-04-04T22:48:38.968Z,93960.48
2019-04-04T22:51:06.229Z,93960.50
2019-04-04T22:53:33.461Z,93963.22
2019-04-04T22:56:00.724Z,93964.70
2019-04-04T22:58:28.933Z,93969.64
2019-04-04T23:00:56.466Z,93967.41
2019-04-04T23:03:24.643Z,93963.80
2019-04-04T23:05:51.847Z,93972.58
2019-04-04T23:08:19.103Z,93966.09
2019-04-04T23:10:46.363Z,93967.81
2019-04-04T23:13:13.585Z,93961.05
2019-04-04T23:15:40.815Z,93958.24
2019-04-04T23:18:08.086Z,93961.16
2019-04-04T23:20:35.329Z,93964.06
2019-04-04T23:23:02.547Z,93970.69
2019-04-04T23:25:29.841Z,93971.15
2019-04-04T23:27:57.004Z,93971.17
2019-04-04T23:30:24.255Z,93971.63
2019-04-04T23:32:51.546Z,93962.95
2019-04-04T23:35:18.773Z,93964.52
2019-04-04T23:37:46.020Z,93973.06
2019-04-04T23:40:13.287Z,93971.89
2019-04-04T23:42:40.577Z,93977.32
2019-04-04T23:45:07.952Z,93982.44
2019-04-04T23:47:42.625Z,93991.21
2019-04-04T23:50:04.566Z,93986.63
2019-04-04T23:52:31.886Z,93993.58
2019-04-04T23:54:59.111Z,93994.03
2019-04-04T23:57:26.370Z,93992.38
2019-04-04T23:59:53.669Z,93993.06
